createdAt,value
2019-05-23T00:01:40.760Z,5.15
2019-05-23T00:04:19.020Z,5.20
2019-05-23T00:06:51.615Z,5.23
2019-05-23T00:09:25.052Z,5.24
2019-05-23T00:12:11.912Z,5.21
2019-05-23T00:14:53.579Z,5.15
2019-05-23T00:17:27.427Z,5.18
2019-05-23T00:20:00.352Z,5.15
2019-05-23T00:22:34.354Z,5.06
2019-05-23T00:25:07.932Z,4.96
2019-05-23T00:27:43.096Z,4.90
2019-05-23T00:30:43.149Z,4.70
2019-05-23T00:33:21.693Z,4.74
2019-05-23T00:35:55.494Z,4.85
2019-05-23T00:38:28.601Z,4.89
2019-05-23T00:41:02.995Z,4.83
2019-05-23T00:43:36.335Z,4.77
2019-05-23T00:46:09.878Z,4.73
2019-05-23T00:48:43.607Z,4.81
2019-05-23T00:51:16.713Z,4.78
2019-05-23T00:53:50.929Z,4.64
2019-05-23T00:56:24.956Z,4.57
2019-05-23T00:58:58.300Z,4.54
2019-05-23T01:01:35.139Z,4.71
2019-05-23T01:04:07.885Z,4.68
2019-05-23T01:06:40.546Z,4.62
2019-05-23T01:09:14.810Z,4.66
2019-05-23T01:11:49.365Z,4.61
2019-05-23T01:14:23.253Z,4.50
2019-05-23T01:16:56.577Z,4.66
2019-05-23T01:19:30.465Z,4.50
2019-05-23T01:22:07.447Z,4.70
2019-05-23T01:24:41.849Z,4.44
2019-05-23T01:27:14.980Z,4.43
2019-05-23T01:29:51.337Z,4.36
2019-05-23T01:32:29.533Z,4.24
2019-05-23T01:35:03.199Z,4.29
2019-05-23T01:37:36.746Z,4.27
2019-05-23T01:40:13.020Z,4.30
2019-05-23T01:42:46.260Z,4.09
2019-05-23T01:45:19.741Z,3.97
2019-05-23T01:47:53.569Z,3.93
2019-05-23T01:50:27.541Z,3.94
2019-05-23T01:53:00.822Z,4.04
2019-05-23T01:55:34.212Z,4.01
2019-05-23T01:58:07.169Z,4.09
2019-05-23T02:00:40.313Z,4.22
2019-05-23T02:03:12.909Z,4.03
2019-05-23T02:05:46.035Z,3.95
2019-05-23T02:08:18.641Z,3.93
2019-05-23T02:10:51.384Z,3.87
2019-05-23T02:13:24.375Z,3.99
2019-05-23T02:15:57.900Z,4.01
2019-05-23T02:18:31.232Z,3.96
2019-05-23T02:21:04.669Z,3.91
2019-05-23T02:23:38.126Z,3.86
2019-05-23T02:26:11.352Z,4.04
2019-05-23T02:28:44.324Z,4.11
2019-05-23T02:31:18.255Z,4.08
2019-05-23T02:33:51.118Z,4.00
2019-05-23T02:36:24.645Z,3.84
2019-05-23T02:39:34.272Z,3.84
2019-05-23T02:42:24.580Z,3.90
2019-05-23T02:44:58.429Z,4.01
2019-05-23T02:47:40.073Z,4.02
2019-05-23T02:50:37.281Z,4.07
2019-05-23T02:53:15.618Z,4.11
2019-05-23T02:55:53.110Z,4.01
2019-05-23T02:58:36.104Z,3.79
2019-05-23T03:01:51.508Z,3.86
2019-05-23T03:04:25.906Z,3.89
2019-05-23T03:07:01.441Z,3.85
2019-05-23T03:09:41.503Z,3.96
2019-05-23T03:12:16.321Z,3.89
2019-05-23T03:14:49.063Z,3.69
2019-05-23T03:17:25.340Z,3.58
2019-05-23T03:20:05.973Z,3.49
2019-05-23T03:22:53.773Z,3.59
2019-05-23T03:26:34.945Z,3.58
2019-05-23T03:29:10.668Z,3.83
2019-05-23T03:31:52.672Z,3.80
2019-05-23T03:34:29.112Z,3.74
2019-05-23T03:37:05.749Z,3.79
2019-05-23T03:39:39.401Z,3.68
2019-05-23T03:42:12.803Z,3.41
2019-05-23T03:44:47.709Z,3.39
2019-05-23T03:47:22.452Z,3.29
2019-05-23T03:49:55.502Z,3.44
2019-05-23T03:52:30.254Z,3.48
2019-05-23T03:55:02.885Z,3.51
2019-05-23T03:57:37.207Z,3.48
2019-05-23T04:00:16.093Z,3.45
2019-05-23T04:02:51.151Z,3.56
2019-05-23T04:05:24.477Z,3.64
2019-05-23T04:07:58.916Z,3.58
2019-05-23T04:10:32.166Z,3.49
2019-05-23T04:13:05.279Z,3.53
2019-05-23T04:15:38.064Z,3.63
2019-05-23T04:18:10.890Z,3.71
2019-05-23T04:20:44.070Z,3.90
2019-05-23T04:23:16.838Z,4.10
2019-05-23T04:25:49.731Z,4.13
2019-05-23T04:28:22.534Z,4.05
2019-05-23T04:30:55.605Z,4.01
2019-05-23T04:33:28.437Z,3.99
2019-05-23T04:36:01.560Z,3.95
2019-05-23T04:38:36.371Z,4.00
2019-05-23T04:41:09.227Z,4.10
2019-05-23T04:43:42.358Z,4.21
2019-05-23T04:46:15.466Z,4.31
2019-05-23T04:48:48.129Z,4.46
2019-05-23T04:51:21.973Z,4.51
2019-05-23T04:53:55.804Z,4.60
2019-05-23T04:56:28.656Z,4.74
2019-05-23T04:59:02.329Z,4.82
2019-05-23T05:01:35.621Z,4.99
2019-05-23T05:04:08.870Z,5.16
2019-05-23T05:06:41.693Z,5.28
2019-05-23T05:09:25.777Z,5.41
2019-05-23T05:11:58.603Z,5.55
2019-05-23T05:14:33.262Z,5.80
2019-05-23T05:17:06.520Z,5.99
2019-05-23T05:19:39.216Z,6.17
2019-05-23T05:22:12.696Z,6.32
2019-05-23T05:24:45.372Z,6.54
2019-05-23T05:27:19.887Z,6.69
2019-05-23T05:29:52.832Z,6.84
2019-05-23T05:32:41.474Z,6.95
2019-05-23T05:35:00.656Z,7.05
2019-05-23T05:37:33.351Z,7.31
2019-05-23T05:40:08.378Z,7.33
2019-05-23T05:42:41.735Z,7.54
2019-05-23T05:45:15.725Z,7.75
2019-05-23T05:47:48.344Z,7.94
2019-05-23T05:50:21.273Z,8.04
2019-05-23T05:52:54.072Z,8.25
2019-05-23T05:55:26.747Z,8.42
2019-05-23T05:57:59.466Z,8.72
2019-05-23T06:00:46.330Z,8.79
2019-05-23T06:03:19.217Z,9.27
2019-05-23T06:05:58.708Z,9.43
2019-05-23T06:08:32.935Z,9.04
2019-05-23T06:11:07.267Z,9.17
2019-05-23T06:13:40.658Z,9.73
2019-05-23T06:16:14.328Z,9.79
2019-05-23T06:18:47.415Z,9.69
2019-05-23T06:21:26.230Z,9.89
2019-05-23T06:23:59.009Z,10.08
2019-05-23T06:26:32.153Z,10.04
2019-05-23T06:29:07.373Z,10.23
2019-05-23T06:31:43.385Z,10.40
2019-05-23T06:34:17.192Z,10.49
2019-05-23T06:36:50.084Z,10.59
2019-05-23T06:39:23.098Z,10.57
2019-05-23T06:41:57.169Z,10.89
2019-05-23T06:44:31.076Z,11.14
2019-05-23T06:47:04.731Z,11.53
2019-05-23T06:49:37.559Z,11.72
2019-05-23T06:52:10.369Z,12.02
2019-05-23T06:54:43.240Z,12.40
2019-05-23T06:57:15.997Z,12.48
2019-05-23T06:59:48.961Z,12.40
2019-05-23T07:02:22.113Z,12.66
2019-05-23T07:04:54.682Z,12.90
2019-05-23T07:07:28.135Z,13.08
2019-05-23T07:10:02.622Z,13.36
2019-05-23T07:12:35.815Z,14.09
2019-05-23T07:15:09.753Z,14.46
2019-05-23T07:17:42.470Z,14.59
2019-05-23T07:20:16.837Z,15.23
2019-05-23T07:22:48.836Z,15.92
2019-05-23T07:25:22.628Z,15.81
2019-05-23T07:27:55.344Z,16.23
2019-05-23T07:30:29.064Z,16.93
2019-05-23T07:33:01.809Z,17.65
2019-05-23T07:35:34.709Z,17.63
2019-05-23T07:38:08.514Z,17.61
2019-05-23T07:40:41.854Z,17.66
2019-05-23T07:43:14.987Z,18.00
2019-05-23T07:45:53.475Z,18.16
2019-05-23T07:48:26.577Z,18.69
2019-05-23T07:50:59.663Z,19.00
2019-05-23T07:53:46.770Z,19.95
2019-05-23T07:56:21.021Z,19.61
2019-05-23T07:58:53.902Z,20.33
2019-05-23T08:01:28.982Z,20.06
2019-05-23T08:04:19.896Z,19.77
2019-05-23T08:06:38.077Z,19.54
2019-05-23T08:09:11.879Z,20.36
2019-05-23T08:11:45.400Z,20.52
2019-05-23T08:14:18.137Z,21.05
2019-05-23T08:16:51.363Z,20.56
2019-05-23T08:19:24.191Z,20.92
2019-05-23T08:21:56.998Z,21.34
2019-05-23T08:24:30.363Z,21.95
2019-05-23T08:27:03.394Z,22.80
2019-05-23T08:29:36.818Z,22.43
2019-05-23T08:32:11.259Z,22.29
2019-05-23T08:34:44.057Z,22.97
2019-05-23T08:37:17.831Z,21.98
2019-05-23T08:39:51.734Z,23.15
2019-05-23T08:42:25.372Z,22.71
2019-05-23T08:44:58.155Z,23.05
2019-05-23T08:47:31.186Z,23.17
2019-05-23T08:50:05.872Z,23.14
2019-05-23T08:52:38.706Z,22.32
2019-05-23T08:55:23.750Z,21.75
2019-05-23T08:57:57.024Z,21.44
2019-05-23T09:00:32.443Z,21.33
2019-05-23T09:03:05.712Z,20.99
2019-05-23T09:05:40.606Z,20.55
2019-05-23T09:08:16.877Z,21.35
2019-05-23T09:10:51.168Z,21.82
2019-05-23T09:13:24.308Z,22.17
2019-05-23T09:15:57.011Z,22.67
2019-05-23T09:18:29.932Z,22.77
2019-05-23T09:21:02.700Z,23.18
2019-05-23T09:23:35.804Z,23.36
2019-05-23T09:26:08.863Z,22.91
2019-05-23T09:28:41.627Z,22.26
2019-05-23T09:31:14.810Z,21.69
2019-05-23T09:33:47.534Z,22.51
2019-05-23T09:36:20.642Z,22.84
2019-05-23T09:38:53.450Z,22.21
2019-05-23T09:41:26.150Z,22.55
2019-05-23T09:43:58.866Z,23.17
2019-05-23T09:46:31.742Z,23.21
2019-05-23T09:49:04.485Z,23.16
2019-05-23T09:51:37.431Z,22.89
2019-05-23T09:54:10.419Z,23.33
2019-05-23T09:56:43.456Z,23.82
2019-05-23T09:59:16.261Z,23.58
2019-05-23T10:01:49.985Z,23.75
2019-05-23T10:04:23.116Z,24.32
2019-05-23T10:06:55.922Z,24.75
2019-05-23T10:09:28.870Z,24.62
2019-05-23T10:12:01.606Z,24.65
2019-05-23T10:14:36.165Z,24.40
2019-05-23T10:17:09.129Z,24.09
2019-05-23T10:19:41.872Z,24.54
2019-05-23T10:22:14.744Z,24.18
2019-05-23T10:24:47.559Z,24.60
2019-05-23T10:27:21.201Z,23.76
2019-05-23T10:29:53.889Z,22.67
2019-05-23T10:32:27.101Z,22.01
2019-05-23T10:34:59.952Z,22.66
2019-05-23T10:37:32.698Z,23.98
2019-05-23T10:40:06.853Z,23.71
2019-05-23T10:42:39.661Z,24.37
2019-05-23T10:45:13.575Z,24.63
2019-05-23T10:47:47.328Z,24.70
2019-05-23T10:50:20.257Z,24.42
2019-05-23T10:52:53.380Z,24.76
2019-05-23T10:55:26.224Z,24.14
2019-05-23T10:57:59.060Z,24.02
2019-05-23T11:00:32.946Z,23.20
2019-05-23T11:03:06.495Z,22.82
2019-05-23T11:05:39.257Z,23.78
2019-05-23T11:08:13.181Z,24.69
2019-05-23T11:10:47.130Z,24.72
2019-05-23T11:13:19.945Z,24.12
2019-05-23T11:15:53.065Z,24.46
2019-05-23T11:18:25.970Z,24.82
2019-05-23T11:20:58.805Z,24.22
2019-05-23T11:23:36.246Z,24.38
2019-05-23T11:26:10.683Z,23.93
2019-05-23T11:28:43.586Z,23.88
2019-05-23T11:31:17.426Z,23.97
2019-05-23T11:33:50.413Z,23.83
2019-05-23T11:36:35.043Z,23.63
2019-05-23T11:38:59.047Z,23.18
2019-05-23T11:41:32.249Z,23.10
2019-05-23T11:44:05.821Z,22.95
2019-05-23T11:46:40.530Z,23.42
2019-05-23T11:49:13.937Z,23.58
2019-05-23T11:51:46.985Z,23.32
2019-05-23T11:54:20.743Z,22.59
2019-05-23T11:56:55.324Z,23.24
2019-05-23T11:59:28.590Z,23.94
2019-05-23T12:02:28.833Z,24.24
2019-05-23T12:05:03.006Z,24.61
2019-05-23T12:07:36.830Z,23.90
2019-05-23T12:10:12.532Z,23.88
2019-05-23T12:12:45.235Z,23.72
2019-05-23T12:15:24.386Z,23.52
2019-05-23T12:17:57.198Z,23.95
2019-05-23T12:20:30.636Z,24.14
2019-05-23T12:23:10.461Z,23.75
2019-05-23T12:25:38.480Z,24.02
2019-05-23T12:28:12.533Z,24.06
2019-05-23T12:30:45.351Z,23.77
2019-05-23T12:33:18.054Z,24.29
2019-05-23T12:35:50.328Z,24.83
2019-05-23T12:38:23.053Z,24.95
2019-05-23T12:40:55.752Z,23.87
2019-05-23T12:43:28.559Z,24.53
2019-05-23T12:46:01.362Z,24.90
2019-05-23T12:48:56.185Z,24.54
2019-05-23T12:51:31.376Z,24.43
2019-05-23T12:54:04.588Z,24.34
2019-05-23T12:56:37.563Z,24.98
2019-05-23T12:59:11.260Z,25.15
2019-05-23T13:01:45.009Z,25.12
2019-05-23T13:04:18.078Z,24.54
2019-05-23T13:06:51.763Z,24.91
2019-05-23T13:09:24.551Z,24.36
2019-05-23T13:11:57.362Z,24.51
2019-05-23T13:14:30.341Z,23.79
2019-05-23T13:17:03.171Z,23.95
2019-05-23T13:19:36.776Z,24.24
2019-05-23T13:22:11.583Z,24.72
2019-05-23T13:24:52.576Z,24.62
2019-05-23T13:27:18.880Z,24.68
2019-05-23T13:29:51.563Z,24.91
2019-05-23T13:32:24.425Z,24.99
2019-05-23T13:34:57.581Z,25.53
2019-05-23T13:37:30.372Z,25.82
2019-05-23T13:40:03.058Z,25.23
2019-05-23T13:42:36.151Z,25.20
2019-05-23T13:45:11.330Z,25.00
2019-05-23T13:47:44.393Z,25.13
2019-05-23T13:50:18.655Z,25.21
2019-05-23T13:52:51.887Z,25.66
2019-05-23T13:55:25.219Z,24.54
2019-05-23T13:57:57.945Z,24.96
2019-05-23T14:00:32.670Z,24.70
2019-05-23T14:03:06.640Z,25.45
2019-05-23T14:05:39.525Z,26.21
2019-05-23T14:08:13.459Z,26.12
2019-05-23T14:10:46.918Z,25.83
2019-05-23T14:13:20.068Z,26.56
2019-05-23T14:15:52.960Z,26.44
2019-05-23T14:18:26.516Z,26.32
2019-05-23T14:20:59.289Z,26.46
2019-05-23T14:23:33.336Z,26.01
2019-05-23T14:26:06.655Z,26.10
2019-05-23T14:28:39.689Z,26.59
2019-05-23T14:31:17.195Z,26.07
2019-05-23T14:34:11.423Z,25.85
2019-05-23T14:37:00.633Z,26.33
2019-05-23T14:39:39.208Z,25.70
2019-05-23T14:42:32.929Z,26.03
2019-05-23T14:45:14.073Z,26.93
2019-05-23T14:47:57.777Z,26.83
2019-05-23T14:50:43.672Z,25.97
2019-05-23T14:53:18.632Z,25.90
2019-05-23T14:55:51.816Z,26.13
2019-05-23T14:58:32.554Z,25.69
2019-05-23T15:01:07.405Z,26.20
2019-05-23T15:03:40.241Z,26.44
2019-05-23T15:06:13.191Z,26.35
2019-05-23T15:08:51.112Z,27.19
2019-05-23T15:11:20.694Z,26.71
2019-05-23T15:13:53.714Z,26.41
2019-05-23T15:16:26.534Z,26.99
2019-05-23T15:18:59.780Z,27.31
2019-05-23T15:21:33.828Z,26.46
2019-05-23T15:24:07.496Z,25.12
2019-05-23T15:26:40.312Z,25.71
2019-05-23T15:29:13.115Z,26.15
2019-05-23T15:32:00.969Z,25.83
2019-05-23T15:34:20.316Z,25.81
2019-05-23T15:36:53.130Z,26.00
2019-05-23T15:39:25.838Z,26.34
2019-05-23T15:41:58.769Z,25.56
2019-05-23T15:44:31.661Z,25.31
2019-05-23T15:47:05.051Z,24.98
2019-05-23T15:49:39.653Z,25.35
2019-05-23T15:52:31.272Z,25.29
2019-05-23T15:55:23.274Z,25.10
2019-05-23T15:58:04.915Z,25.27
2019-05-23T16:01:06.191Z,24.72
2019-05-23T16:03:57.444Z,25.05
2019-05-23T16:06:33.371Z,25.10
2019-05-23T16:09:27.954Z,24.62
2019-05-23T16:11:46.187Z,23.46
2019-05-23T16:14:19.194Z,24.27
2019-05-23T16:16:56.234Z,24.25
2019-05-23T16:19:28.809Z,23.76
2019-05-23T16:22:01.617Z,23.45
2019-05-23T16:24:34.327Z,23.22
2019-05-23T16:27:07.698Z,23.24
2019-05-23T16:29:40.420Z,23.45
2019-05-23T16:32:13.561Z,22.43
2019-05-23T16:34:46.702Z,21.94
2019-05-23T16:37:19.834Z,21.54
2019-05-23T16:39:52.509Z,21.24
2019-05-23T16:42:25.317Z,20.92
2019-05-23T16:44:58.071Z,20.54
2019-05-23T16:47:31.342Z,20.16
2019-05-23T16:50:04.037Z,19.86
2019-05-23T16:52:37.058Z,19.71
2019-05-23T16:55:20.308Z,19.76
2019-05-23T16:57:57.784Z,19.71
2019-05-23T17:01:01.868Z,19.77
2019-05-23T17:03:52.261Z,19.69
2019-05-23T17:07:01.620Z,19.59
2019-05-23T17:10:06.675Z,19.18
2019-05-23T17:12:38.191Z,18.99
2019-05-23T17:15:45.789Z,19.01
2019-05-23T17:18:25.811Z,18.81
2019-05-23T17:21:09.365Z,18.69
2019-05-23T17:24:04.084Z,18.63
2019-05-23T17:27:04.899Z,18.58
2019-05-23T17:29:46.060Z,18.50
2019-05-23T17:32:23.029Z,18.29
2019-05-23T17:34:57.021Z,18.23
2019-05-23T17:37:29.921Z,18.04
2019-05-23T17:40:02.785Z,17.92
2019-05-23T17:42:35.568Z,17.89
2019-05-23T17:45:09.165Z,17.81
2019-05-23T17:47:42.096Z,17.68
2019-05-23T17:50:15.293Z,17.49
2019-05-23T17:52:48.102Z,17.29
2019-05-23T17:55:21.383Z,17.25
2019-05-23T17:57:56.780Z,17.30
2019-05-23T18:00:34.716Z,17.26
2019-05-23T18:03:08.245Z,17.03
2019-05-23T18:05:41.747Z,16.80
2019-05-23T18:08:16.086Z,16.59
2019-05-23T18:10:49.734Z,16.40
2019-05-23T18:13:23.451Z,16.25
2019-05-23T18:15:56.263Z,16.07
2019-05-23T18:18:29.151Z,15.85
2019-05-23T18:21:03.051Z,15.70
2019-05-23T18:23:36.307Z,15.42
2019-05-23T18:26:09.934Z,15.22
2019-05-23T18:28:43.556Z,15.01
2019-05-23T18:31:22.287Z,14.87
2019-05-23T18:33:54.971Z,14.70
2019-05-23T18:36:29.514Z,14.53
2019-05-23T18:39:04.070Z,14.39
2019-05-23T18:41:36.879Z,14.21
2019-05-23T18:44:10.396Z,14.04
2019-05-23T18:46:46.779Z,13.91
2019-05-23T18:49:20.728Z,13.86
2019-05-23T18:51:53.450Z,13.65
2019-05-23T18:54:26.331Z,13.49
2019-05-23T18:56:59.220Z,13.35
2019-05-23T18:59:32.337Z,13.15
2019-05-23T19:02:06.604Z,13.02
2019-05-23T19:04:39.730Z,12.89
2019-05-23T19:07:13.104Z,12.72
2019-05-23T19:09:46.677Z,12.65
2019-05-23T19:12:19.681Z,12.53
2019-05-23T19:14:52.750Z,12.30
2019-05-23T19:17:26.121Z,12.04
2019-05-23T19:19:59.032Z,11.83
2019-05-23T19:22:31.753Z,11.70
2019-05-23T19:25:05.570Z,11.64
2019-05-23T19:27:39.097Z,11.51
2019-05-23T19:30:13.651Z,11.37
2019-05-23T19:32:46.552Z,11.27
2019-05-23T19:35:19.295Z,11.15
2019-05-23T19:37:52.100Z,11.09
2019-05-23T19:40:25.462Z,10.96
2019-05-23T19:42:58.828Z,10.94
2019-05-23T19:45:31.828Z,10.92
2019-05-23T19:48:04.937Z,10.85
2019-05-23T19:50:38.772Z,10.72
2019-05-23T19:53:11.835Z,10.60
2019-05-23T19:55:47.071Z,10.49
2019-05-23T19:58:20.785Z,10.45
2019-05-23T20:00:53.843Z,10.47
2019-05-23T20:03:27.810Z,10.52
2019-05-23T20:06:01.057Z,10.43
2019-05-23T20:08:33.886Z,10.26
2019-05-23T20:11:07.164Z,10.13
2019-05-23T20:13:40.162Z,10.12
2019-05-23T20:16:13.255Z,10.10
2019-05-23T20:18:46.513Z,9.99
2019-05-23T20:21:19.837Z,9.89
2019-05-23T20:23:52.650Z,9.89
2019-05-23T20:26:25.504Z,9.81
2019-05-23T20:28:58.331Z,9.79
2019-05-23T20:31:31.041Z,9.68
2019-05-23T20:34:06.682Z,9.58
2019-05-23T20:36:38.247Z,9.37
2019-05-23T20:39:11.005Z,9.28
2019-05-23T20:41:43.728Z,9.31
2019-05-23T20:44:16.403Z,9.40
2019-05-23T20:46:49.636Z,9.35
2019-05-23T20:49:22.308Z,9.16
2019-05-23T20:51:55.405Z,9.18
2019-05-23T20:54:28.195Z,9.04
2019-05-23T20:57:01.012Z,9.19
2019-05-23T20:59:33.697Z,9.18
2019-05-23T21:02:07.643Z,9.05
2019-05-23T21:04:40.705Z,8.94
2019-05-23T21:07:13.568Z,8.87
2019-05-23T21:09:49.501Z,8.86
2019-05-23T21:12:30.078Z,8.74
2019-05-23T21:14:56.889Z,8.77
2019-05-23T21:17:29.602Z,8.66
2019-05-23T21:20:02.287Z,8.66
2019-05-23T21:22:35.152Z,8.81
2019-05-23T21:25:08.153Z,8.81
2019-05-23T21:27:40.974Z,8.71
2019-05-23T21:30:14.902Z,8.61
2019-05-23T21:32:47.590Z,8.53
2019-05-23T21:35:20.166Z,8.45
2019-05-23T21:37:52.838Z,8.42
2019-05-23T21:40:46.262Z,8.35
2019-05-23T21:43:19.171Z,8.37
2019-05-23T21:45:52.722Z,8.34
2019-05-23T21:48:25.532Z,8.46
2019-05-23T21:50:58.224Z,8.52
2019-05-23T21:53:31.005Z,8.48
2019-05-23T21:56:03.824Z,8.33
2019-05-23T21:58:36.533Z,8.14
2019-05-23T22:01:50.639Z,8.04
2019-05-23T22:04:25.915Z,8.08
2019-05-23T22:07:01.736Z,8.00
2019-05-23T22:09:35.548Z,8.08
2019-05-23T22:12:12.112Z,8.10
2019-05-23T22:14:45.627Z,8.11
2019-05-23T22:17:19.943Z,7.98
2019-05-23T22:19:53.087Z,7.98
2019-05-23T22:22:25.812Z,7.99
2019-05-23T22:24:58.649Z,7.99
2019-05-23T22:27:32.120Z,7.86
2019-05-23T22:30:06.989Z,7.77
2019-05-23T22:32:39.791Z,7.82
2019-05-23T22:35:17.303Z,7.81
2019-05-23T22:37:49.932Z,7.76
2019-05-23T22:40:22.601Z,7.88
2019-05-23T22:42:57.542Z,7.84
2019-05-23T22:45:31.047Z,7.76
2019-05-23T22:48:04.057Z,7.81
2019-05-23T22:50:36.913Z,7.84
2019-05-23T22:53:09.883Z,7.80
2019-05-23T22:55:42.508Z,7.73
2019-05-23T22:58:15.226Z,7.80
2019-05-23T23:00:49.676Z,7.78
2019-05-23T23:03:22.361Z,7.83
2019-05-23T23:05:55.165Z,7.87
2019-05-23T23:08:28.397Z,7.97
2019-05-23T23:11:01.008Z,8.17
2019-05-23T23:13:38.486Z,8.08
2019-05-23T23:16:08.949Z,7.87
2019-05-23T23:18:41.676Z,7.74
2019-05-23T23:21:14.383Z,7.75
2019-05-23T23:23:47.068Z,7.81
2019-05-23T23:26:19.983Z,7.89
2019-05-23T23:28:52.840Z,8.05
2019-05-23T23:31:26.257Z,8.02
2019-05-23T23:33:58.937Z,7.93
2019-05-23T23:36:31.550Z,7.88
2019-05-23T23:39:06.515Z,7.80
2019-05-23T23:41:39.167Z,7.86
2019-05-23T23:44:12.501Z,7.85
2019-05-23T23:47:02.923Z,7.94
2019-05-23T23:49:53.068Z,7.94
2019-05-23T23:52:46.374Z,7.91
2019-05-23T23:55:37.214Z,7.78
2019-05-23T23:58:08.924Z,7.71
